createdAt,value
2022-11-24T00:00:05.066Z,9.70
2022-11-24T00:01:05.057Z,9.40
2022-11-24T00:02:05.156Z,9.50
2022-11-24T00:03:05.149Z,8.20
2022-11-24T00:04:05.025Z,9.80
2022-11-24T00:05:05.006Z,9.20
2022-11-24T00:06:04.996Z,9.90
2022-11-24T00:07:04.975Z,11.10
2022-11-24T00:08:04.976Z,12.00
2022-11-24T00:09:04.979Z,9.50
2022-11-24T00:10:05.011Z,10.50
2022-11-24T00:11:04.929Z,9.60
2022-11-24T00:12:04.941Z,8.60
2022-11-24T00:13:04.943Z,8.20
2022-11-24T00:14:04.907Z,10.00
2022-11-24T00:15:04.886Z,9.40
2022-11-24T00:16:04.858Z,10.50
2022-11-24T00:17:04.969Z,8.10
2022-11-24T00:18:04.848Z,9.50
2022-11-24T00:19:04.829Z,9.10
2022-11-24T00:20:04.818Z,9.40
2022-11-24T00:21:04.798Z,9.00
2022-11-24T00:22:04.808Z,9.20
2022-11-24T00:23:04.809Z,9.40
2022-11-24T00:24:04.761Z,9.90
2022-11-24T00:25:04.748Z,9.60
2022-11-24T00:26:04.731Z,10.40
2022-11-24T00:27:04.721Z,8.90
2022-11-24T00:28:04.700Z,10.90
2022-11-24T00:29:04.708Z,9.70
2022-11-24T00:30:04.689Z,10.50
2022-11-24T00:31:04.713Z,11.70
2022-11-24T00:32:04.676Z,11.40
2022-11-24T00:33:04.638Z,18.80
2022-11-24T00:34:04.634Z,11.90
2022-11-24T00:35:04.629Z,13.10
2022-11-24T00:36:04.599Z,11.90
2022-11-24T00:37:04.609Z,10.80
2022-11-24T00:38:04.632Z,11.50
2022-11-24T00:39:04.584Z,12.00
2022-11-24T00:40:04.550Z,11.10
2022-11-24T00:41:04.537Z,11.20
2022-11-24T00:42:04.545Z,11.10
2022-11-24T00:43:04.514Z,10.10
2022-11-24T00:44:04.511Z,9.10
2022-11-24T00:45:13.501Z,9.40
2022-11-24T00:46:05.613Z,9.80
2022-11-24T00:47:04.574Z,12.50
2022-11-24T00:48:04.443Z,9.50
2022-11-24T00:49:04.441Z,9.10
2022-11-24T00:50:04.420Z,12.80
2022-11-24T00:51:04.419Z,12.00
2022-11-24T00:52:04.398Z,8.60
2022-11-24T00:53:04.419Z,10.00
2022-11-24T00:54:04.383Z,11.80
2022-11-24T00:55:04.370Z,9.70
2022-11-24T00:56:04.349Z,8.20
2022-11-24T00:57:04.335Z,9.20
2022-11-24T00:58:04.320Z,9.10
2022-11-24T00:59:04.344Z,9.00
2022-11-24T01:00:04.293Z,10.60
2022-11-24T01:01:04.323Z,10.50
2022-11-24T01:02:04.366Z,8.70
2022-11-24T01:03:04.300Z,9.20
2022-11-24T01:04:04.269Z,10.50
2022-11-24T01:05:04.248Z,10.10
2022-11-24T01:06:04.203Z,8.30
2022-11-24T01:07:04.215Z,8.60
2022-11-24T01:08:04.245Z,13.50
2022-11-24T01:09:04.184Z,8.40
2022-11-24T01:10:04.158Z,10.30
2022-11-24T01:11:04.165Z,11.00
2022-11-24T01:12:04.263Z,9.90
2022-11-24T01:13:04.125Z,10.70
2022-11-24T01:14:04.117Z,9.20
2022-11-24T01:15:04.103Z,7.80
2022-11-24T01:16:04.175Z,17.70
2022-11-24T01:17:04.096Z,11.90
2022-11-24T01:18:04.073Z,9.50
2022-11-24T01:19:04.063Z,15.30
2022-11-24T01:20:04.045Z,10.80
2022-11-24T01:21:09.664Z,15.10
2022-11-24T01:22:05.018Z,14.70
2022-11-24T01:23:04.018Z,12.70
2022-11-24T01:24:03.996Z,10.30
2022-11-24T01:25:03.986Z,10.20
2022-11-24T01:26:03.963Z,13.30
2022-11-24T01:27:03.936Z,10.90
2022-11-24T01:28:03.924Z,10.40
2022-11-24T01:29:03.932Z,10.80
2022-11-24T01:30:03.923Z,8.90
2022-11-24T01:31:03.948Z,12.00
2022-11-24T01:32:03.899Z,13.60
2022-11-24T01:33:03.856Z,13.90
2022-11-24T01:34:03.864Z,11.00
2022-11-24T01:35:03.843Z,12.00
2022-11-24T01:36:03.832Z,14.70
2022-11-24T01:37:03.806Z,10.20
2022-11-24T01:38:03.805Z,14.70
2022-11-24T01:39:03.807Z,10.80
2022-11-24T01:40:03.768Z,12.10
2022-11-24T01:41:03.766Z,9.50
2022-11-24T01:42:03.761Z,10.80
2022-11-24T01:43:03.762Z,12.50
2022-11-24T01:44:03.743Z,12.40
2022-11-24T01:45:03.711Z,14.00
2022-11-24T01:46:03.868Z,13.30
2022-11-24T01:47:03.696Z,11.80
2022-11-24T01:48:03.677Z,12.70
2022-11-24T01:49:03.689Z,13.50
2022-11-24T01:50:03.646Z,13.10
2022-11-24T01:51:03.632Z,13.70
2022-11-24T01:52:03.637Z,15.00
2022-11-24T01:53:03.639Z,13.30
2022-11-24T01:54:03.597Z,9.90
2022-11-24T01:55:03.593Z,14.90
2022-11-24T01:56:03.563Z,13.60
2022-11-24T01:57:03.558Z,18.30
2022-11-24T01:58:03.548Z,14.80
2022-11-24T01:59:03.537Z,14.10
2022-11-24T02:00:03.548Z,11.80
2022-11-24T02:01:03.555Z,11.10
2022-11-24T02:02:03.580Z,14.60
2022-11-24T02:03:03.554Z,13.70
2022-11-24T02:04:03.476Z,14.90
2022-11-24T02:05:03.490Z,14.00
2022-11-24T02:06:03.441Z,10.20
2022-11-24T02:07:03.458Z,18.90
2022-11-24T02:08:03.439Z,19.50
2022-11-24T02:09:03.421Z,15.00
2022-11-24T02:10:03.427Z,15.10
2022-11-24T02:11:03.389Z,14.70
2022-11-24T02:12:03.367Z,17.30
2022-11-24T02:13:03.357Z,18.50
2022-11-24T02:14:03.372Z,13.70
2022-11-24T02:15:03.339Z,19.00
2022-11-24T02:16:03.439Z,14.80
2022-11-24T02:17:03.327Z,18.50
2022-11-24T02:18:03.288Z,15.80
2022-11-24T02:19:03.267Z,16.70
2022-11-24T02:20:03.284Z,24.70
2022-11-24T02:21:03.272Z,14.50
2022-11-24T02:22:03.269Z,17.90
2022-11-24T02:23:03.240Z,20.40
2022-11-24T02:24:03.210Z,20.40
2022-11-24T02:25:03.200Z,23.30
2022-11-24T02:26:03.190Z,15.10
2022-11-24T02:27:03.186Z,16.30
2022-11-24T02:28:03.161Z,17.60
2022-11-24T02:29:03.158Z,20.50
2022-11-24T02:30:03.144Z,16.70
2022-11-24T02:31:03.223Z,18.60
2022-11-24T02:32:03.249Z,13.60
2022-11-24T02:33:03.082Z,19.80
2022-11-24T02:34:03.089Z,16.20
2022-11-24T02:35:03.080Z,16.50
2022-11-24T02:36:03.062Z,15.50
2022-11-24T02:37:03.053Z,20.20
2022-11-24T02:38:03.064Z,17.80
2022-11-24T02:39:03.020Z,20.10
2022-11-24T02:40:03.030Z,16.60
2022-11-24T02:41:02.997Z,21.10
2022-11-24T02:42:02.990Z,17.30
2022-11-24T02:43:02.960Z,15.30
2022-11-24T02:44:02.970Z,12.80
2022-11-24T02:45:02.985Z,21.50
2022-11-24T02:46:02.989Z,16.80
2022-11-24T02:47:02.932Z,15.40
2022-11-24T02:48:02.926Z,19.80
2022-11-24T02:49:02.901Z,17.70
2022-11-24T02:50:02.882Z,13.50
2022-11-24T02:51:02.872Z,16.40
2022-11-24T02:52:02.859Z,20.60
2022-11-24T02:53:02.868Z,19.90
2022-11-24T02:54:02.842Z,24.60
2022-11-24T02:55:02.830Z,20.00
2022-11-24T02:56:02.812Z,19.70
2022-11-24T02:57:02.842Z,24.50
2022-11-24T02:58:02.795Z,22.00
2022-11-24T02:59:02.773Z,18.10
2022-11-24T03:00:02.754Z,20.10
2022-11-24T03:01:02.793Z,18.40
2022-11-24T03:02:02.807Z,14.80
2022-11-24T03:03:02.732Z,16.20
2022-11-24T03:04:02.741Z,14.30
2022-11-24T03:05:02.697Z,21.00
2022-11-24T03:06:02.690Z,21.40
2022-11-24T03:07:02.661Z,23.00
2022-11-24T03:08:02.651Z,18.90
2022-11-24T03:09:02.639Z,18.10
2022-11-24T03:10:02.623Z,18.10
2022-11-24T03:11:02.663Z,12.30
2022-11-24T03:12:02.609Z,25.60
2022-11-24T03:13:02.592Z,20.00
2022-11-24T03:14:02.582Z,14.50
2022-11-24T03:15:02.559Z,15.80
2022-11-24T03:16:02.627Z,20.30
2022-11-24T03:17:02.538Z,18.80
2022-11-24T03:18:02.536Z,16.20
2022-11-24T03:19:02.519Z,19.90
2022-11-24T03:20:04.896Z,17.50
2022-11-24T03:21:02.505Z,18.60
2022-11-24T03:22:02.486Z,15.70
2022-11-24T03:23:02.468Z,19.20
2022-11-24T03:24:02.443Z,20.10
2022-11-24T03:25:02.434Z,21.00
2022-11-24T03:26:02.468Z,17.30
2022-11-24T03:27:02.407Z,19.70
2022-11-24T03:28:02.396Z,17.20
2022-11-24T03:29:02.385Z,16.80
2022-11-24T03:30:02.364Z,17.60
2022-11-24T03:31:02.415Z,22.50
2022-11-24T03:32:02.344Z,18.20
2022-11-24T03:33:02.331Z,21.10
2022-11-24T03:34:02.327Z,14.30
2022-11-24T03:35:02.306Z,18.30
2022-11-24T03:36:02.325Z,18.50
2022-11-24T03:37:02.299Z,19.10
2022-11-24T03:38:02.274Z,18.00
2022-11-24T03:39:02.258Z,17.80
2022-11-24T03:40:02.258Z,18.80
2022-11-24T03:41:02.236Z,20.80
2022-11-24T03:42:02.255Z,17.90
2022-11-24T03:43:02.219Z,20.00
2022-11-24T03:44:02.211Z,18.50
2022-11-24T03:45:29.762Z,15.70
2022-11-24T03:46:03.205Z,18.90
2022-11-24T03:47:02.170Z,17.80
2022-11-24T03:48:02.140Z,20.80
2022-11-24T03:49:02.125Z,19.40
2022-11-24T03:50:02.117Z,24.10
2022-11-24T04:03:16.857Z,20.80
2022-11-24T04:04:16.860Z,13.30
2022-11-24T04:05:16.827Z,16.60
2022-11-24T04:06:16.886Z,21.30
2022-11-24T04:07:16.881Z,23.60
2022-11-24T04:08:16.786Z,20.70
2022-11-24T04:09:16.781Z,23.20
2022-11-24T04:10:16.760Z,19.50
2022-11-24T04:11:16.839Z,21.00
2022-11-24T04:12:26.512Z,18.90
2022-11-24T04:13:16.734Z,24.10
2022-11-24T04:14:16.714Z,14.90
2022-11-24T04:15:16.721Z,19.70
2022-11-24T04:16:16.730Z,21.00
2022-11-24T04:17:16.713Z,18.00
2022-11-24T04:18:16.675Z,22.30
2022-11-24T04:19:16.689Z,19.30
2022-11-24T04:20:16.655Z,24.50
2022-11-24T04:21:16.633Z,20.70
2022-11-24T04:22:16.659Z,17.30
2022-11-24T04:23:16.612Z,18.60
2022-11-24T04:24:16.615Z,16.50
2022-11-24T04:25:16.567Z,21.70
2022-11-24T04:26:16.588Z,15.70
2022-11-24T04:27:16.591Z,20.50
2022-11-24T04:28:16.534Z,15.90
2022-11-24T04:29:16.545Z,20.80
2022-11-24T04:30:16.527Z,17.80
2022-11-24T04:31:16.571Z,20.70
2022-11-24T04:32:16.485Z,18.20
2022-11-24T04:33:16.486Z,21.30
2022-11-24T04:34:16.482Z,17.40
2022-11-24T04:35:16.455Z,18.70
2022-11-24T04:36:16.457Z,16.20
2022-11-24T04:37:16.440Z,17.10
2022-11-24T04:39:23.332Z,19.30
2022-11-24T04:39:24.422Z,20.30
2022-11-24T04:40:17.395Z,22.40
2022-11-24T04:41:16.385Z,19.00
2022-11-24T04:42:16.366Z,19.30
2022-11-24T04:43:16.356Z,23.80
2022-11-24T04:44:16.350Z,18.00
2022-11-24T04:45:16.335Z,25.10
2022-11-24T04:46:16.357Z,21.50
2022-11-24T04:47:16.323Z,21.70
2022-11-24T04:48:16.285Z,18.70
2022-11-24T04:49:16.266Z,20.40
2022-11-24T04:50:16.246Z,19.00
2022-11-24T04:51:16.248Z,18.80
2022-11-24T04:52:16.249Z,18.70
2022-11-24T04:53:16.217Z,19.80
2022-11-24T04:54:16.209Z,17.90
2022-11-24T04:55:16.223Z,15.30
2022-11-24T04:56:16.177Z,22.80
2022-11-24T04:57:16.159Z,14.20
2022-11-24T04:58:16.175Z,21.90
2022-11-24T04:59:16.132Z,16.60
2022-11-24T05:00:16.121Z,21.60
2022-11-24T05:01:16.240Z,19.10
2022-11-24T05:02:16.090Z,19.20
2022-11-24T05:03:16.107Z,17.90
2022-11-24T05:04:16.129Z,19.10
2022-11-24T05:05:16.069Z,26.10
2022-11-24T05:06:16.038Z,21.30
2022-11-24T05:07:18.775Z,17.70
2022-11-24T05:08:16.054Z,16.20
2022-11-24T05:09:16.014Z,21.40
2022-11-24T05:10:15.999Z,22.40
2022-11-24T05:11:15.986Z,20.10
2022-11-24T05:12:15.979Z,19.00
2022-11-24T05:13:15.985Z,24.50
2022-11-24T05:14:15.962Z,16.20
2022-11-24T05:15:15.928Z,20.30
2022-11-24T05:16:16.054Z,19.10
2022-11-24T05:17:15.908Z,18.50
2022-11-24T05:18:15.919Z,21.10
2022-11-24T05:19:15.888Z,22.10
2022-11-24T05:20:15.878Z,21.80
2022-11-24T05:21:15.860Z,20.00
2022-11-24T05:22:15.839Z,17.00
2022-11-24T05:23:15.863Z,22.00
2022-11-24T05:24:15.811Z,18.10
2022-11-24T05:25:15.789Z,18.80
2022-11-24T05:26:15.781Z,22.90
2022-11-24T05:27:15.778Z,26.20
2022-11-24T05:28:15.779Z,19.80
2022-11-24T05:29:15.748Z,19.10
2022-11-24T05:30:15.730Z,19.40
2022-11-24T05:31:15.750Z,20.80
2022-11-24T05:32:15.728Z,25.80
2022-11-24T05:33:15.700Z,21.20
2022-11-24T05:34:15.713Z,20.80
2022-11-24T05:35:15.684Z,18.90
2022-11-24T05:36:15.668Z,25.80
2022-11-24T05:37:15.633Z,19.30
2022-11-24T05:38:15.644Z,20.70
2022-11-24T05:39:15.625Z,18.20
2022-11-24T05:40:15.630Z,23.70
2022-11-24T05:41:15.592Z,20.30
2022-11-24T05:42:15.581Z,21.50
2022-11-24T05:43:15.585Z,26.90
2022-11-24T05:44:15.558Z,23.00
2022-11-24T05:45:15.528Z,23.80
2022-11-24T05:46:15.603Z,19.50
2022-11-24T05:47:15.503Z,21.50
2022-11-24T05:48:15.511Z,20.70
2022-11-24T05:49:15.492Z,19.90
2022-11-24T05:50:15.484Z,23.00
2022-11-24T05:51:15.457Z,21.70
2022-11-24T05:52:15.453Z,19.30
2022-11-24T05:53:15.441Z,20.30
2022-11-24T05:54:15.432Z,21.70
2022-11-24T05:55:15.443Z,21.10
2022-11-24T05:56:15.391Z,19.20
2022-11-24T05:57:15.392Z,21.10
2022-11-24T05:58:15.388Z,21.10
2022-11-24T05:59:15.351Z,19.30
2022-11-24T06:00:15.355Z,24.00
2022-11-24T06:01:15.379Z,22.50
2022-11-24T06:02:15.390Z,19.30
2022-11-24T06:03:15.381Z,20.60
2022-11-24T06:04:15.313Z,25.70
2022-11-24T06:05:15.289Z,24.10
2022-11-24T06:06:15.302Z,19.30
2022-11-24T06:07:15.304Z,22.50
2022-11-24T06:08:15.292Z,19.40
2022-11-24T06:09:15.232Z,20.70
2022-11-24T06:10:15.234Z,22.30
2022-11-24T06:11:15.226Z,17.70
2022-11-24T06:12:15.210Z,17.50
2022-11-24T06:13:15.236Z,21.80
2022-11-24T06:14:15.203Z,20.30
2022-11-24T06:15:15.154Z,25.50
2022-11-24T06:16:15.191Z,23.60
2022-11-24T06:17:15.146Z,22.40
2022-11-24T06:18:15.131Z,20.60
2022-11-24T06:19:15.169Z,21.30
2022-11-24T06:20:15.107Z,23.50
2022-11-24T06:21:15.095Z,24.70
2022-11-24T06:22:15.085Z,19.60
2022-11-24T06:23:15.122Z,21.60
2022-11-24T06:24:15.099Z,25.40
2022-11-24T06:25:15.035Z,22.40
2022-11-24T06:26:15.054Z,20.90
2022-11-24T06:27:16.022Z,19.20
2022-11-24T06:28:14.995Z,19.20
2022-11-24T06:29:15.052Z,25.10
2022-11-24T06:30:15.002Z,21.60
2022-11-24T06:31:15.033Z,19.80
2022-11-24T06:32:14.960Z,19.20
2022-11-24T06:33:15.934Z,25.90
2022-11-24T06:34:14.944Z,20.70
2022-11-24T06:35:14.916Z,23.80
2022-11-24T06:36:14.944Z,23.30
2022-11-24T06:37:14.904Z,19.30
2022-11-24T06:38:15.731Z,21.60
2022-11-24T06:39:14.866Z,21.40
2022-11-24T06:40:14.875Z,17.30
2022-11-24T06:41:14.835Z,21.90
2022-11-24T06:42:14.827Z,24.10
2022-11-24T06:43:15.826Z,24.60
2022-11-24T06:44:14.816Z,19.00
2022-11-24T06:45:14.797Z,20.00
2022-11-24T06:46:14.846Z,21.10
2022-11-24T06:47:14.775Z,18.20
2022-11-24T06:48:15.789Z,23.30
2022-11-24T06:49:14.747Z,26.00
2022-11-24T06:50:14.753Z,19.30
2022-11-24T06:51:14.705Z,15.10
2022-11-24T06:52:14.697Z,17.00
2022-11-24T06:53:14.707Z,19.50
2022-11-24T06:54:14.676Z,20.20
2022-11-24T06:55:14.658Z,16.30
2022-11-24T06:56:16.724Z,16.20
2022-11-24T06:57:14.625Z,20.20
2022-11-24T06:58:14.627Z,16.10
2022-11-24T06:59:14.629Z,18.90
2022-11-24T07:00:14.620Z,18.30
2022-11-24T07:01:14.664Z,20.20
2022-11-24T07:02:14.579Z,15.00
2022-11-24T07:03:14.599Z,15.10
2022-11-24T07:04:15.551Z,16.30
2022-11-24T07:05:14.550Z,11.80
2022-11-24T07:06:14.538Z,16.20
2022-11-24T07:07:14.585Z,16.90
2022-11-24T07:08:17.793Z,12.80
2022-11-24T07:09:14.479Z,14.70
2022-11-24T07:10:14.477Z,17.00
2022-11-24T07:11:14.458Z,16.10
2022-11-24T07:12:14.444Z,14.20
2022-11-24T07:13:14.481Z,17.40
2022-11-24T07:14:14.435Z,14.60
2022-11-24T07:15:14.432Z,15.20
2022-11-24T07:16:14.481Z,14.60
2022-11-24T07:17:14.369Z,12.90
2022-11-24T07:18:14.393Z,14.00
2022-11-24T07:19:14.365Z,19.60
2022-11-24T07:20:14.349Z,14.10
2022-11-24T07:21:14.347Z,17.10
2022-11-24T07:22:14.341Z,15.30
2022-11-24T07:23:14.334Z,14.90
2022-11-24T07:24:14.321Z,15.50
2022-11-24T07:25:14.319Z,17.40
2022-11-24T07:26:14.301Z,14.90
2022-11-24T07:27:14.260Z,13.90
2022-11-24T07:28:14.241Z,17.30
2022-11-24T07:29:14.240Z,12.90
2022-11-24T07:30:14.261Z,15.80
2022-11-24T07:31:14.316Z,16.40
2022-11-24T07:32:14.278Z,13.20
2022-11-24T07:33:14.180Z,12.40
2022-11-24T07:34:14.171Z,14.10
2022-11-24T07:35:14.179Z,11.80
2022-11-24T07:36:14.209Z,13.00
2022-11-24T07:37:14.159Z,13.40
2022-11-24T07:38:14.120Z,15.40
2022-11-24T07:39:17.998Z,18.70
2022-11-24T07:40:14.133Z,14.90
2022-11-24T07:41:14.107Z,14.10
2022-11-24T07:42:14.071Z,14.70
2022-11-24T07:43:19.806Z,14.00
2022-11-24T07:44:15.042Z,11.80
2022-11-24T07:45:14.039Z,12.30
2022-11-24T07:46:14.134Z,11.80
2022-11-24T07:47:14.013Z,11.70
2022-11-24T07:48:14.004Z,13.30
2022-11-24T07:49:13.988Z,11.40
2022-11-24T07:50:13.972Z,14.90
2022-11-24T07:51:14.006Z,15.50
2022-11-24T07:52:13.942Z,14.20
2022-11-24T07:53:13.946Z,14.60
2022-11-24T07:54:13.942Z,11.00
2022-11-24T07:55:13.925Z,11.90
2022-11-24T07:56:13.933Z,12.50
2022-11-24T07:57:13.885Z,13.60
2022-11-24T07:58:13.872Z,11.40
2022-11-24T07:59:13.842Z,13.10
2022-11-24T08:00:13.889Z,15.10
2022-11-24T08:01:15.025Z,14.20
2022-11-24T08:02:14.830Z,13.70
2022-11-24T08:03:13.884Z,15.40
2022-11-24T08:04:13.887Z,11.00
2022-11-24T08:05:13.793Z,12.50
2022-11-24T08:06:38.474Z,16.60
2022-11-24T08:07:14.843Z,17.70
2022-11-24T08:08:13.743Z,9.60
2022-11-24T08:09:13.753Z,11.00
2022-11-24T08:10:13.725Z,11.40
2022-11-24T08:11:13.748Z,13.50
2022-11-24T08:12:13.731Z,9.90
2022-11-24T08:13:13.691Z,12.00
2022-11-24T08:14:13.673Z,10.30
2022-11-24T08:15:13.686Z,9.40
2022-11-24T08:16:13.747Z,10.00
2022-11-24T08:17:13.663Z,13.90
2022-11-24T08:18:13.620Z,8.20
2022-11-24T08:19:13.606Z,11.10
2022-11-24T08:20:13.684Z,12.70
2022-11-24T08:21:13.596Z,11.00
2022-11-24T08:22:13.573Z,9.70
2022-11-24T08:23:13.559Z,10.30
2022-11-24T08:24:13.592Z,12.40
2022-11-24T08:25:13.535Z,13.30
2022-11-24T08:26:13.565Z,10.40
2022-11-24T08:27:13.564Z,12.90
2022-11-24T08:28:14.488Z,8.70
2022-11-24T08:29:13.474Z,6.60
2022-11-24T08:30:13.475Z,9.30
2022-11-24T08:31:13.494Z,9.30
2022-11-24T08:32:17.558Z,9.90
2022-11-24T08:33:14.412Z,9.20
2022-11-24T08:34:13.412Z,8.50
2022-11-24T08:35:14.584Z,7.90
2022-11-24T08:36:13.442Z,8.80
2022-11-24T08:37:13.364Z,8.00
2022-11-24T08:38:13.380Z,9.20
2022-11-24T08:39:13.336Z,9.10
2022-11-24T08:40:13.360Z,11.30
2022-11-24T08:41:13.355Z,7.70
2022-11-24T08:42:13.305Z,9.00
2022-11-24T08:43:14.294Z,8.80
2022-11-24T08:44:13.275Z,9.50
2022-11-24T08:45:21.024Z,9.60
2022-11-24T08:46:14.347Z,10.30
2022-11-24T08:47:13.250Z,9.90
2022-11-24T08:48:13.339Z,8.90
2022-11-24T08:49:13.205Z,10.10
2022-11-24T08:50:13.195Z,8.90
2022-11-24T08:51:13.192Z,7.00
2022-11-24T08:52:13.195Z,9.00
2022-11-24T08:53:13.153Z,10.80
2022-11-24T08:54:13.830Z,9.90
2022-11-24T08:55:13.148Z,9.60
2022-11-24T08:56:13.121Z,9.70
2022-11-24T08:57:16.017Z,9.10
2022-11-24T08:58:14.098Z,8.80
2022-11-24T08:59:13.137Z,13.20
2022-11-24T09:00:13.081Z,11.70
2022-11-24T09:01:14.060Z,11.30
2022-11-24T09:02:13.122Z,9.20
2022-11-24T09:03:13.042Z,12.10
2022-11-24T09:04:14.051Z,9.60
2022-11-24T09:05:35.894Z,8.30
2022-11-24T09:06:14.043Z,8.70
2022-11-24T09:07:13.096Z,9.10
2022-11-24T09:08:12.978Z,11.40
2022-11-24T09:09:13.948Z,8.90
2022-11-24T09:10:12.940Z,5.40
2022-11-24T09:11:12.933Z,10.50
2022-11-24T09:12:14.600Z,10.60
2022-11-24T09:13:12.942Z,10.40
2022-11-24T09:14:12.888Z,6.20
2022-11-24T09:15:12.880Z,9.70
2022-11-24T09:16:12.974Z,7.10
2022-11-24T09:17:12.954Z,12.70
2022-11-24T09:18:13.687Z,9.30
2022-11-24T09:19:12.822Z,10.40
2022-11-24T09:20:12.904Z,9.30
2022-11-24T09:21:12.795Z,12.30
2022-11-24T09:22:12.803Z,9.30
2022-11-24T09:23:12.771Z,8.20
2022-11-24T09:24:12.884Z,10.20
2022-11-24T09:25:13.760Z,10.00
2022-11-24T09:26:12.777Z,10.00
2022-11-24T09:27:12.756Z,8.80
2022-11-24T09:28:12.688Z,8.30
2022-11-24T09:29:12.699Z,9.60
2022-11-24T09:30:13.699Z,9.60
2022-11-24T09:31:12.710Z,12.30
2022-11-24T09:32:12.673Z,10.30
2022-11-24T09:33:12.642Z,6.80
2022-11-24T09:34:12.652Z,9.30
2022-11-24T09:35:12.621Z,13.10
2022-11-24T09:36:12.612Z,9.20
2022-11-24T09:37:12.611Z,10.30
2022-11-24T09:38:12.565Z,8.40
2022-11-24T09:39:12.561Z,11.10
2022-11-24T09:40:12.577Z,10.90
2022-11-24T09:41:12.536Z,8.30
2022-11-24T09:42:12.543Z,12.10
2022-11-24T09:43:12.500Z,10.70
2022-11-24T09:44:12.492Z,11.50
2022-11-24T09:45:12.551Z,11.20
2022-11-24T09:46:12.514Z,8.10
2022-11-24T09:47:12.472Z,8.80
2022-11-24T10:03:54.395Z,8.90
2022-11-24T10:04:54.460Z,10.10
2022-11-24T10:05:54.357Z,6.70
2022-11-24T10:06:55.345Z,7.20
2022-11-24T10:07:54.423Z,8.20
2022-11-24T10:08:54.325Z,7.10
2022-11-24T10:09:54.330Z,7.30
2022-11-24T10:10:54.308Z,11.70
2022-11-24T10:11:54.305Z,8.20
2022-11-24T10:12:54.340Z,6.70
2022-11-24T10:13:54.267Z,8.20
2022-11-24T10:14:54.274Z,8.60
2022-11-24T10:15:54.290Z,6.00
2022-11-24T10:16:54.216Z,9.30
2022-11-24T10:17:54.261Z,7.20
2022-11-24T10:18:54.209Z,8.30
2022-11-24T10:19:54.176Z,8.00
2022-11-24T10:20:54.192Z,8.60
2022-11-24T10:21:54.178Z,8.00
2022-11-24T10:22:54.221Z,8.20
2022-11-24T10:23:54.157Z,4.50
2022-11-24T10:24:54.128Z,7.90
2022-11-24T10:25:54.132Z,6.60
2022-11-24T10:26:54.118Z,6.60
2022-11-24T10:27:54.110Z,7.40
2022-11-24T10:28:54.141Z,7.50
2022-11-24T10:29:54.060Z,7.70
2022-11-24T10:30:54.063Z,7.70
2022-11-24T10:31:54.032Z,8.40
2022-11-24T10:32:54.052Z,7.50
2022-11-24T10:33:54.055Z,8.30
2022-11-24T10:34:53.994Z,5.80
2022-11-24T10:35:55.991Z,6.50
2022-11-24T10:36:53.968Z,5.00
2022-11-24T10:37:53.947Z,8.00
2022-11-24T10:38:53.957Z,6.10
2022-11-24T10:39:59.675Z,7.20
2022-11-24T10:40:57.351Z,6.70
2022-11-24T10:41:53.929Z,5.60
2022-11-24T10:42:53.901Z,7.50
2022-11-24T10:43:53.889Z,7.80
2022-11-24T10:44:53.860Z,7.60
2022-11-24T10:45:55.926Z,6.90
2022-11-24T10:46:53.921Z,7.00
2022-11-24T10:47:53.844Z,6.60
2022-11-24T10:48:53.851Z,6.90
2022-11-24T10:49:53.806Z,8.00
2022-11-24T10:50:53.812Z,7.40
2022-11-24T10:51:53.770Z,6.10
2022-11-24T10:52:55.798Z,6.10
2022-11-24T10:53:53.750Z,7.50
2022-11-24T10:54:53.741Z,5.70
2022-11-24T10:55:53.732Z,8.70
2022-11-24T10:56:53.691Z,8.00
2022-11-24T10:57:53.700Z,7.90
2022-11-24T10:58:53.691Z,7.40
2022-11-24T10:59:53.681Z,6.10
2022-11-24T11:00:53.676Z,10.30
2022-11-24T11:01:53.687Z,7.20
2022-11-24T11:02:53.673Z,7.50
2022-11-24T11:03:53.624Z,4.80
2022-11-24T11:04:53.621Z,6.30
2022-11-24T11:05:53.578Z,7.70
2022-11-24T11:06:53.592Z,6.80
2022-11-24T11:07:54.611Z,6.60
2022-11-24T11:08:53.571Z,9.50
2022-11-24T11:09:53.554Z,9.50
2022-11-24T11:10:53.514Z,6.80
2022-11-24T11:11:53.495Z,8.20
2022-11-24T11:12:53.510Z,9.00
2022-11-24T11:13:56.861Z,9.60
2022-11-24T11:14:54.497Z,8.80
2022-11-24T11:15:53.477Z,9.10
2022-11-24T11:16:53.444Z,10.00
2022-11-24T11:17:54.415Z,8.50
2022-11-24T11:18:53.461Z,9.40
2022-11-24T11:19:58.641Z,6.10
2022-11-24T11:20:54.395Z,7.20
2022-11-24T11:21:53.375Z,9.80
2022-11-24T11:22:53.370Z,8.50
2022-11-24T11:23:53.351Z,11.10
2022-11-24T11:24:54.375Z,9.20
2022-11-24T11:25:53.332Z,10.40
2022-11-24T11:26:53.292Z,8.30
2022-11-24T11:27:54.292Z,8.30
2022-11-24T11:28:53.524Z,10.10
2022-11-24T11:34:03.825Z,12.80
2022-11-24T11:34:54.222Z,12.10
2022-11-24T11:35:53.202Z,12.90
2022-11-24T11:36:53.180Z,6.00
2022-11-24T11:37:53.183Z,9.30
2022-11-24T11:38:54.157Z,8.50
2022-11-24T11:39:53.179Z,9.50
2022-11-24T11:40:54.124Z,6.90
2022-11-24T11:41:53.123Z,9.70
2022-11-24T11:43:08.549Z,7.90
2022-11-24T11:43:54.095Z,9.70
2022-11-24T11:44:53.096Z,6.80
2022-11-24T11:45:53.267Z,9.00
2022-11-24T11:46:53.138Z,8.80
2022-11-24T11:47:53.092Z,6.50
2022-11-24T11:48:53.093Z,9.50
2022-11-24T11:49:53.034Z,6.80
2022-11-24T11:51:22.428Z,7.80
2022-11-24T11:51:53.994Z,9.40
2022-11-24T11:52:53.024Z,8.10
2022-11-24T11:53:53.224Z,7.60
2022-11-24T11:54:52.994Z,6.50
2022-11-24T11:55:52.932Z,6.50
2022-11-24T11:56:52.917Z,6.80
2022-11-24T11:57:52.906Z,10.60
2022-11-24T11:58:52.894Z,6.60
2022-11-24T11:59:52.904Z,4.40
2022-11-24T12:00:52.876Z,4.30
2022-11-24T12:01:52.856Z,4.80
2022-11-24T12:02:53.791Z,5.60
2022-11-24T12:03:52.932Z,6.40
2022-11-24T12:04:52.836Z,4.50
2022-11-24T12:05:52.815Z,3.80
2022-11-24T12:06:52.786Z,5.10
2022-11-24T12:07:52.911Z,4.30
2022-11-24T12:09:21.158Z,6.00
2022-11-24T12:09:53.767Z,7.60
2022-11-24T12:10:52.746Z,3.80
2022-11-24T12:11:52.719Z,4.40
2022-11-24T12:12:52.697Z,4.70
2022-11-24T12:13:53.687Z,6.30
2022-11-24T12:14:52.735Z,5.10
2022-11-24T12:15:52.739Z,5.70
2022-11-24T12:16:52.646Z,4.60
2022-11-24T12:17:52.686Z,5.00
2022-11-24T12:18:58.247Z,5.30
2022-11-24T12:19:53.637Z,5.00
2022-11-24T12:20:52.646Z,5.20
2022-11-24T12:21:52.598Z,7.60
2022-11-24T12:22:52.582Z,4.80
2022-11-24T12:23:53.570Z,5.20
2022-11-24T12:24:52.608Z,5.00
2022-11-24T12:25:52.580Z,5.40
2022-11-24T12:26:52.531Z,4.40
2022-11-24T12:27:52.508Z,4.30
2022-11-24T12:28:52.498Z,5.40
2022-11-24T12:29:52.545Z,4.50
2022-11-24T12:30:52.565Z,4.70
2022-11-24T12:31:52.515Z,3.90
2022-11-24T12:32:52.449Z,4.20
2022-11-24T12:33:55.360Z,3.70
2022-11-24T12:34:53.459Z,5.80
2022-11-24T12:35:52.438Z,4.70
2022-11-24T12:36:52.390Z,3.60
2022-11-24T12:37:52.445Z,5.50
2022-11-24T12:38:53.369Z,7.20
2022-11-24T12:39:52.387Z,5.00
2022-11-24T12:40:58.061Z,4.90
2022-11-24T12:41:53.337Z,7.20
2022-11-24T12:42:52.332Z,5.00
2022-11-24T12:43:52.309Z,5.50
2022-11-24T12:44:52.307Z,5.40
2022-11-24T12:45:52.309Z,7.40
2022-11-24T12:46:52.297Z,7.10
2022-11-24T12:47:52.251Z,4.30
2022-11-24T12:48:53.275Z,7.40
2022-11-24T12:49:52.230Z,5.50
2022-11-24T12:50:52.229Z,7.60
2022-11-24T12:51:52.190Z,6.00
2022-11-24T12:52:58.496Z,7.10
2022-11-24T12:53:53.215Z,7.40
2022-11-24T12:54:52.162Z,6.20
2022-11-24T12:55:52.177Z,4.40
2022-11-24T12:56:52.122Z,6.20
2022-11-24T12:57:52.142Z,6.90
2022-11-24T12:58:52.128Z,7.10
2022-11-24T12:59:52.128Z,6.00
2022-11-24T13:00:52.091Z,7.60
2022-11-24T13:01:52.212Z,5.50
2022-11-24T13:02:52.261Z,6.10
2022-11-24T13:03:52.061Z,7.50
2022-11-24T13:04:52.050Z,6.90
2022-11-24T13:05:52.053Z,6.70
2022-11-24T13:06:52.005Z,6.00
2022-11-24T13:07:52.071Z,4.70
2022-11-24T13:08:52.002Z,6.30
2022-11-24T13:09:51.998Z,6.20
2022-11-24T13:10:57.077Z,6.60
2022-11-24T13:11:52.946Z,9.00
2022-11-24T13:12:51.942Z,8.10
2022-11-24T13:13:51.924Z,5.50
2022-11-24T13:14:51.933Z,6.70
2022-11-24T13:16:13.121Z,6.10
2022-11-24T13:17:21.613Z,7.00
2022-11-24T13:18:07.207Z,7.20
2022-11-24T13:18:52.937Z,6.60
2022-11-24T13:19:51.844Z,8.40
2022-11-24T13:20:51.831Z,7.70
2022-11-24T13:21:51.945Z,7.60
2022-11-24T13:22:51.799Z,11.30
2022-11-24T13:23:51.816Z,10.90
2022-11-24T13:24:51.816Z,7.90
2022-11-24T13:25:51.846Z,10.00
2022-11-24T13:26:52.035Z,10.00
2022-11-24T13:27:51.733Z,11.80
2022-11-24T13:29:05.805Z,6.40
2022-11-24T13:29:52.720Z,8.40
2022-11-24T13:30:51.695Z,8.10
2022-11-24T13:31:52.415Z,7.90
2022-11-24T13:32:51.857Z,6.30
2022-11-24T13:33:51.673Z,7.10